Time;durP1;ratioP1;P1;durP2;ratioP2;P2;SDS_P1;SDS_P2;PMS_P1;PMS_P2;Temp;Humidity;BMP_temperature;BMP_pressure;BME280_temperature;BME280_humidity;BME280_pressure;Samples;Min_cycle;Max_cycle;Signal;HPM_P1;HPM_P2
2021/10/11 00:02:25;;;;;;;15.45;9.65;;;4.10;99.90;;;;;;4877904;29;20230;-73
2021/10/11 00:04:53;;;;;;;12.20;9.52;;;4.10;99.90;;;;;;4878132;29;20257;-73
2021/10/11 00:07:20;;;;;;;11.90;9.30;;;4.00;99.90;;;;;;4877242;29;20738;-73
2021/10/11 00:09:46;;;;;;;10.80;9.63;;;4.00;99.90;;;;;;4878356;29;20207;-73
2021/10/11 00:12:13;;;;;;;13.10;9.30;;;4.00;99.90;;;;;;4877912;29;20215;-71
2021/10/11 00:14:40;;;;;;;12.13;9.77;;;4.00;99.90;;;;;;4877603;29;20598;-73
2021/10/11 00:17:06;;;;;;;14.57;9.57;;;3.90;99.90;;;;;;4876898;29;20200;-73
2021/10/11 00:19:35;;;;;;;12.45;9.07;;;3.90;99.90;;;;;;4877748;29;20245;-73
2021/10/11 00:22:04;;;;;;;12.43;9.13;;;4.00;99.90;;;;;;4876799;29;20619;-73
2021/10/11 00:24:30;;;;;;;10.27;8.85;;;4.00;99.90;;;;;;4877493;29;20238;-73
2021/10/11 00:26:57;;;;;;;10.40;8.70;;;4.00;99.90;;;;;;4877203;29;20226;-73
2021/10/11 00:29:24;;;;;;;13.45;10.20;;;3.90;99.90;;;;;;4946929;23;20226;-70
2021/10/11 00:31:50;;;;;;;9.20;8.30;;;3.90;99.90;;;;;;4884367;29;20580;-70
2021/10/11 00:34:17;;;;;;;11.77;9.30;;;3.90;99.90;;;;;;4874006;29;20296;-70
2021/10/11 00:36:44;;;;;;;9.88;8.40;;;3.80;99.90;;;;;;4858770;29;20219;-70
2021/10/11 00:39:12;;;;;;;13.30;9.32;;;3.80;99.90;;;;;;4859220;29;20268;-70
2021/10/11 00:41:39;;;;;;;11.73;8.40;;;3.70;99.90;;;;;;4858654;29;20219;-70
2021/10/11 00:44:06;;;;;;;10.35;8.55;;;3.80;99.90;;;;;;4858856;29;20264;-70
2021/10/11 00:46:33;;;;;;;10.15;8.93;;;3.70;99.90;;;;;;4857913;29;20234;-70
2021/10/11 00:49:00;;;;;;;12.63;8.27;;;3.70;99.90;;;;;;4858967;29;20211;-70
2021/10/11 00:51:26;;;;;;;12.60;9.55;;;3.70;99.90;;;;;;4858550;29;20211;-70
2021/10/11 00:53:53;;;;;;;12.07;8.18;;;3.70;99.90;;;;;;4858058;29;20216;-70
2021/10/11 00:56:22;;;;;;;10.90;9.23;;;3.80;99.90;;;;;;4858216;29;20747;-69
2021/10/11 00:58:48;;;;;;;11.68;8.75;;;3.80;99.90;;;;;;4858325;29;20215;-69
2021/10/11 01:01:15;;;;;;;11.88;8.98;;;3.80;99.90;;;;;;4858431;29;20688;-70
2021/10/11 01:03:42;;;;;;;11.75;9.35;;;3.70;99.90;;;;;;4858198;29;20260;-69
2021/10/11 01:06:09;;;;;;;11.35;10.00;;;3.60;99.90;;;;;;4858085;29;20232;-69
2021/10/11 01:08:36;;;;;;;11.38;8.65;;;3.60;99.90;;;;;;4858127;29;20212;-70
2021/10/11 01:11:03;;;;;;;14.88;10.18;;;3.50;99.90;;;;;;4858412;29;20211;-70
2021/10/11 01:13:31;;;;;;;11.60;8.93;;;3.50;99.90;;;;;;4858126;29;20208;-69
2021/10/11 01:15:58;;;;;;;12.75;9.45;;;3.50;99.90;;;;;;4857663;29;20228;-70
2021/10/11 01:18:25;;;;;;;14.40;9.93;;;3.50;99.90;;;;;;4858365;29;20590;-70
2021/10/11 01:20:53;;;;;;;12.93;10.05;;;3.50;99.90;;;;;;4858172;29;20215;-69
2021/10/11 01:23:19;;;;;;;10.93;9.15;;;3.40;99.90;;;;;;4858511;29;20208;-69
2021/10/11 01:25:46;;;;;;;12.75;9.55;;;3.40;99.90;;;;;;4857310;29;20223;-70
2021/10/11 01:28:13;;;;;;;10.80;8.98;;;3.40;99.90;;;;;;4857666;29;20215;-70
2021/10/11 01:30:39;;;;;;;11.90;9.48;;;3.40;99.90;;;;;;4857973;29;20211;-69
2021/10/11 01:33:09;;;;;;;11.05;9.55;;;3.40;99.90;;;;;;4858109;29;20208;-70
2021/10/11 01:35:35;;;;;;;12.77;9.02;;;3.30;99.90;;;;;;4857937;29;20235;-69
2021/10/11 01:38:04;;;;;;;11.90;9.10;;;3.30;99.90;;;;;;4857664;29;20211;-69
2021/10/11 01:40:31;;;;;;;10.60;9.18;;;3.30;99.90;;;;;;4858040;29;20632;-70
2021/10/11 01:42:58;;;;;;;11.98;9.10;;;3.30;99.90;;;;;;4858305;29;20250;-70
2021/10/11 01:45:24;;;;;;;12.68;9.43;;;3.30;99.90;;;;;;4857614;29;20235;-69
2021/10/11 01:47:51;;;;;;;11.05;8.93;;;3.20;99.90;;;;;;4857513;29;20234;-70
2021/10/11 01:50:18;;;;;;;14.52;9.23;;;3.20;99.90;;;;;;4857953;29;20212;-69
2021/10/11 01:52:44;;;;;;;13.07;9.43;;;3.20;99.90;;;;;;4857904;29;20223;-70
2021/10/11 01:55:12;;;;;;;14.13;9.93;;;3.10;99.90;;;;;;4857735;29;20231;-70
2021/10/11 01:57:39;;;;;;;14.75;10.02;;;3.20;99.90;;;;;;4857212;29;20600;-69
2021/10/11 02:00:07;;;;;;;11.43;8.60;;;3.10;99.90;;;;;;4857766;29;20415;-69
2021/10/11 02:02:35;;;;;;;10.60;9.35;;;3.10;99.90;;;;;;4857838;29;20204;-69
2021/10/11 02:05:02;;;;;;;12.40;9.27;;;3.20;99.90;;;;;;4857710;29;20243;-69
2021/10/11 02:07:29;;;;;;;10.07;8.05;;;3.10;99.90;;;;;;4857351;29;20711;-69
2021/10/11 02:09:56;;;;;;;12.63;9.95;;;3.10;99.90;;;;;;4858443;29;20495;-69
2021/10/11 02:12:24;;;;;;;10.23;8.98;;;3.10;99.90;;;;;;4857647;29;20279;-69
2021/10/11 02:14:51;;;;;;;14.20;9.77;;;3.10;99.90;;;;;;4857593;29;20228;-70
2021/10/11 02:17:18;;;;;;;10.45;9.00;;;3.10;99.90;;;;;;4857226;29;20204;-70
2021/10/11 02:19:45;;;;;;;11.80;9.57;;;3.10;99.90;;;;;;4857956;29;20208;-71
2021/10/11 02:22:12;;;;;;;11.15;9.80;;;3.10;99.90;;;;;;4857648;29;20208;-70
2021/10/11 02:24:38;;;;;;;14.40;9.70;;;3.00;99.90;;;;;;4857543;29;20238;-70
2021/10/11 02:27:05;;;;;;;12.88;9.75;;;3.00;99.90;;;;;;4857131;29;20223;-70
2021/10/11 02:29:33;;;;;;;11.25;8.38;;;3.00;99.90;;;;;;4857477;29;20216;-70
2021/10/11 02:32:00;;;;;;;15.02;11.25;;;2.90;99.90;;;;;;4857784;29;20227;-70
2021/10/11 02:34:27;;;;;;;12.77;9.48;;;2.90;99.90;;;;;;4857612;29;20228;-70
2021/10/11 02:36:53;;;;;;;14.57;9.20;;;2.90;99.90;;;;;;4857163;29;20423;-70
2021/10/11 02:39:20;;;;;;;12.43;10.05;;;2.90;99.90;;;;;;4858697;29;20581;-70
2021/10/11 02:41:47;;;;;;;11.57;10.07;;;2.90;99.90;;;;;;4860913;29;20212;-70
2021/10/11 02:44:14;;;;;;;13.88;10.07;;;2.90;99.90;;;;;;4860530;29;20636;-70
2021/10/11 02:46:42;;;;;;;13.50;9.95;;;2.80;99.90;;;;;;4860168;29;20223;-70
2021/10/11 02:49:08;;;;;;;13.50;9.65;;;2.80;99.90;;;;;;4860690;29;20234;-70
2021/10/11 02:51:35;;;;;;;13.93;10.30;;;2.80;99.90;;;;;;4860599;29;20691;-70
2021/10/11 02:54:02;;;;;;;12.57;9.95;;;2.90;99.90;;;;;;4860643;29;20228;-70
2021/10/11 02:56:28;;;;;;;13.75;10.85;;;2.90;99.90;;;;;;4860190;29;20207;-69
2021/10/11 02:58:55;;;;;;;12.57;10.15;;;2.90;99.90;;;;;;4860594;29;20211;-70
2021/10/11 03:01:22;;;;;;;12.70;9.35;;;2.90;99.90;;;;;;4860308;29;20211;-69
2021/10/11 03:03:50;;;;;;;10.75;9.30;;;2.90;99.90;;;;;;4860748;29;20214;-70
2021/10/11 03:06:16;;;;;;;12.60;10.10;;;2.90;99.90;;;;;;4859779;29;20218;-69
2021/10/11 03:08:43;;;;;;;13.80;9.88;;;2.90;99.90;;;;;;4860456;29;20580;-69
2021/10/11 03:11:10;;;;;;;14.10;10.70;;;2.90;99.90;;;;;;4860368;29;20211;-69
2021/10/11 03:13:37;;;;;;;11.88;9.82;;;2.80;99.90;;;;;;4860136;29;20659;-69
2021/10/11 03:16:04;;;;;;;13.65;10.60;;;2.80;99.90;;;;;;4859759;29;20228;-69
2021/10/11 03:18:30;;;;;;;13.43;9.82;;;2.80;99.90;;;;;;4860179;29;20360;-69
2021/10/11 03:20:58;;;;;;;15.02;9.70;;;2.90;99.90;;;;;;4860293;29;20216;-70
2021/10/11 03:23:25;;;;;;;12.35;10.10;;;2.90;99.90;;;;;;4860248;29;20238;-69
2021/10/11 03:25:52;;;;;;;13.65;9.75;;;2.80;99.90;;;;;;4859892;29;20319;-70
2021/10/11 03:28:19;;;;;;;10.05;8.82;;;2.80;99.90;;;;;;4859695;29;20243;-70
2021/10/11 03:30:47;;;;;;;16.90;10.43;;;2.80;99.90;;;;;;4860135;29;20649;-69
2021/10/11 03:33:14;;;;;;;13.07;10.65;;;2.80;99.90;;;;;;4860069;29;20212;-69
2021/10/11 03:35:41;;;;;;;12.27;10.23;;;2.90;99.90;;;;;;4860049;29;20223;-69
2021/10/11 03:38:09;;;;;;;16.30;10.98;;;2.90;99.90;;;;;;4870043;29;20264;-69
2021/10/11 03:40:36;;;;;;;12.25;10.25;;;2.90;99.90;;;;;;4867008;29;20550;-70
2021/10/11 03:43:02;;;;;;;14.23;10.95;;;2.90;99.90;;;;;;4868362;29;20203;-69
2021/10/11 03:45:29;;;;;;;14.18;10.60;;;2.90;99.90;;;;;;4868356;29;20236;-70
2021/10/11 03:47:56;;;;;;;13.45;11.35;;;2.90;99.90;;;;;;4866511;29;20219;-70
2021/10/11 03:50:22;;;;;;;14.05;10.70;;;3.00;99.90;;;;;;4868130;29;20675;-69
2021/10/11 03:52:49;;;;;;;14.70;11.38;;;2.90;99.90;;;;;;4868415;29;20649;-70
2021/10/11 03:55:17;;;;;;;14.25;11.43;;;2.90;99.90;;;;;;4866729;29;20263;-70
2021/10/11 03:57:44;;;;;;;15.13;10.90;;;2.90;99.90;;;;;;4867349;29;20371;-69
2021/10/11 04:00:11;;;;;;;17.05;11.27;;;2.90;99.90;;;;;;4868508;29;20208;-69
2021/10/11 04:02:38;;;;;;;13.07;11.20;;;2.90;99.90;;;;;;4874833;29;20325;-69
2021/10/11 04:05:06;;;;;;;18.33;11.93;;;3.00;99.90;;;;;;4877390;29;20315;-69
2021/10/11 04:07:33;;;;;;;13.55;10.65;;;3.00;99.90;;;;;;4877677;29;20313;-69
2021/10/11 04:10:03;;;;;;;16.90;10.48;;;2.90;99.90;;;;;;4874353;29;20686;-70
2021/10/11 04:12:35;;;;;;;15.27;11.55;;;3.10;99.90;;;;;;4867460;29;20679;-69
2021/10/11 04:15:03;;;;;;;15.57;12.20;;;3.00;99.90;;;;;;4868347;29;20246;-69
2021/10/11 04:17:29;;;;;;;18.55;12.00;;;3.10;99.90;;;;;;4866714;29;20196;-70
2021/10/11 04:19:56;;;;;;;16.67;11.25;;;3.10;99.90;;;;;;4866779;29;20226;-70
2021/10/11 04:22:23;;;;;;;14.98;12.00;;;3.10;99.90;;;;;;4868382;29;20206;-70
2021/10/11 04:24:50;;;;;;;14.80;11.25;;;3.10;99.90;;;;;;4868367;29;20223;-69
2021/10/11 04:27:17;;;;;;;15.35;10.90;;;3.10;99.90;;;;;;4866737;29;20231;-69
2021/10/11 04:29:45;;;;;;;14.45;11.07;;;3.10;99.90;;;;;;4867344;29;20219;-69
2021/10/11 04:32:12;;;;;;;14.30;11.10;;;3.10;99.90;;;;;;4867967;29;20203;-69
2021/10/11 04:34:38;;;;;;;15.32;11.50;;;3.20;99.90;;;;;;4875977;29;20238;-69
2021/10/11 04:37:05;;;;;;;14.00;11.10;;;3.20;99.90;;;;;;4877226;29;20585;-69
2021/10/11 04:39:32;;;;;;;16.58;11.60;;;3.20;99.90;;;;;;4877681;29;20589;-69
2021/10/11 04:41:59;;;;;;;15.05;11.20;;;3.20;99.90;;;;;;4877666;29;20695;-69
2021/10/11 04:44:25;;;;;;;18.05;12.30;;;3.30;99.90;;;;;;4877418;29;20710;-69
2021/10/11 04:46:54;;;;;;;17.25;11.10;;;3.20;99.90;;;;;;4877254;29;20210;-69
2021/10/11 04:49:20;;;;;;;13.60;11.27;;;3.20;99.90;;;;;;4877319;29;20207;-70
2021/10/11 04:51:47;;;;;;;14.93;11.38;;;3.20;99.90;;;;;;4877725;29;20551;-70
2021/10/11 04:54:14;;;;;;;13.77;11.05;;;3.20;99.90;;;;;;4877617;29;20238;-69
2021/10/11 04:56:41;;;;;;;17.73;11.77;;;3.20;99.90;;;;;;4877059;29;20218;-69
2021/10/11 04:59:08;;;;;;;12.45;11.02;;;3.10;99.90;;;;;;4877402;29;20666;-69
2021/10/11 05:01:35;;;;;;;16.33;12.93;;;3.10;99.90;;;;;;4876929;29;20211;-69
2021/10/11 05:04:03;;;;;;;18.17;11.25;;;3.00;99.90;;;;;;4877144;29;20591;-69
2021/10/11 05:06:30;;;;;;;16.67;11.48;;;3.00;99.90;;;;;;4876971;29;20206;-70
2021/10/11 05:09:00;;;;;;;12.60;11.00;;;3.10;99.90;;;;;;4877001;29;20254;-69
2021/10/11 05:11:27;;;;;;;11.30;10.05;;;3.00;99.90;;;;;;4877372;29;20580;-69
2021/10/11 05:13:54;;;;;;;14.20;11.57;;;3.00;99.90;;;;;;4876920;29;20207;-69
2021/10/11 05:16:20;;;;;;;14.35;10.65;;;3.10;99.90;;;;;;4876823;29;20203;-69
2021/10/11 05:18:47;;;;;;;16.52;10.82;;;3.00;99.90;;;;;;4877252;29;20210;-69
2021/10/11 05:21:15;;;;;;;17.73;11.63;;;3.00;99.90;;;;;;4877300;29;20592;-69
2021/10/11 05:23:42;;;;;;;15.88;11.45;;;3.00;99.90;;;;;;4876928;29;20207;-69
2021/10/11 05:26:09;;;;;;;14.48;11.45;;;3.00;99.90;;;;;;4876438;29;20603;-69
2021/10/11 05:28:35;;;;;;;13.73;11.05;;;3.00;99.90;;;;;;4877229;29;20237;-69
2021/10/11 05:31:02;;;;;;;17.38;12.50;;;3.10;99.90;;;;;;4876943;29;20235;-69
2021/10/11 05:33:29;;;;;;;14.85;11.00;;;3.10;99.90;;;;;;4876873;29;20207;-69
2021/10/11 05:35:56;;;;;;;18.95;12.80;;;3.20;99.90;;;;;;4876437;29;20238;-69
2021/10/11 05:38:24;;;;;;;15.95;11.57;;;3.30;99.90;;;;;;4876868;29;20203;-69
2021/10/11 05:40:51;;;;;;;15.23;11.80;;;3.40;99.90;;;;;;4876884;29;20222;-69
2021/10/11 05:43:17;;;;;;;16.90;12.55;;;3.50;99.90;;;;;;4876725;29;20207;-69
2021/10/11 05:45:44;;;;;;;15.77;12.55;;;3.50;99.90;;;;;;4876331;29;20234;-69
2021/10/11 05:48:11;;;;;;;12.93;10.57;;;3.50;99.90;;;;;;4876616;29;20227;-69
2021/10/11 05:50:37;;;;;;;15.75;11.25;;;3.50;99.90;;;;;;4876845;29;20211;-69
2021/10/11 05:53:04;;;;;;;13.30;10.52;;;3.60;99.90;;;;;;4877230;29;20235;-70
2021/10/11 05:55:32;;;;;;;14.55;11.15;;;3.50;99.90;;;;;;4876802;29;20231;-70
2021/10/11 05:57:59;;;;;;;16.40;12.15;;;3.60;99.90;;;;;;4876442;29;20583;-70
2021/10/11 06:00:26;;;;;;;15.07;11.15;;;3.60;99.90;;;;;;4876865;29;20214;-70
2021/10/11 06:02:53;;;;;;;17.00;13.15;;;3.60;99.90;;;;;;4876947;29;20667;-70
2021/10/11 06:05:19;;;;;;;19.35;12.85;;;3.70;99.90;;;;;;4876581;29;20680;-70
2021/10/11 06:07:46;;;;;;;15.55;12.07;;;3.70;99.90;;;;;;4876232;29;20231;-70
2021/10/11 06:10:13;;;;;;;22.50;12.95;;;3.80;99.90;;;;;;4876556;29;20215;-70
2021/10/11 06:12:42;;;;;;;14.85;11.50;;;3.80;99.90;;;;;;4876758;29;20207;-70
2021/10/11 06:15:10;;;;;;;15.25;10.55;;;3.80;99.90;;;;;;4879200;29;20649;-70
2021/10/11 06:17:37;;;;;;;15.25;11.20;;;3.90;99.90;;;;;;4879991;29;20214;-70
2021/10/11 06:20:04;;;;;;;15.48;11.32;;;3.90;99.90;;;;;;4880067;29;20211;-69
2021/10/11 06:22:31;;;;;;;14.70;12.30;;;3.90;99.90;;;;;;4880293;29;20653;-71
2021/10/11 06:24:58;;;;;;;15.00;12.02;;;3.90;99.90;;;;;;4880166;29;20227;-70
2021/10/11 06:27:27;;;;;;;14.38;9.98;;;4.00;99.90;;;;;;4879734;29;20590;-70
2021/10/11 06:29:55;;;;;;;18.90;12.77;;;4.00;99.90;;;;;;4880050;29;20314;-70
2021/10/11 06:32:21;;;;;;;12.82;11.13;;;4.10;99.90;;;;;;4984815;23;20238;-70
2021/10/11 06:34:48;;;;;;;11.80;10.35;;;4.10;99.90;;;;;;4890862;29;20226;-71
2021/10/11 06:37:15;;;;;;;17.02;10.75;;;4.10;99.90;;;;;;4879678;29;20218;-69
2021/10/11 06:39:42;;;;;;;15.35;11.43;;;4.20;99.90;;;;;;4879511;29;20207;-70
2021/10/11 06:42:08;;;;;;;15.02;11.43;;;4.20;99.90;;;;;;4879868;29;20222;-70
2021/10/11 06:44:35;;;;;;;15.75;11.27;;;4.20;99.90;;;;;;4879751;29;20223;-71
2021/10/11 06:47:03;;;;;;;16.25;11.05;;;4.30;99.90;;;;;;4879143;29;20210;-70
2021/10/11 06:49:30;;;;;;;14.07;10.70;;;4.40;99.90;;;;;;4879394;29;20235;-70
2021/10/11 06:51:57;;;;;;;18.15;12.15;;;4.60;99.90;;;;;;4879616;29;20211;-71
2021/10/11 06:54:24;;;;;;;13.48;11.18;;;4.80;99.90;;;;;;4879692;29;20234;-71
2021/10/11 06:56:51;;;;;;;14.93;11.45;;;5.00;99.90;;;;;;4879305;29;20213;-71
2021/10/11 06:59:17;;;;;;;15.10;10.80;;;5.20;99.90;;;;;;4879616;29;20211;-71
2021/10/11 07:01:44;;;;;;;13.77;10.98;;;5.40;99.90;;;;;;4879558;29;20211;-71
2021/10/11 07:04:12;;;;;;;12.93;10.50;;;5.70;99.90;;;;;;4879154;29;20234;-70
2021/10/11 07:06:41;;;;;;;15.27;11.13;;;5.90;99.90;;;;;;4879147;29;20203;-70
2021/10/11 07:09:07;;;;;;;13.10;10.20;;;6.10;99.90;;;;;;4879178;29;20326;-69
2021/10/11 07:11:34;;;;;;;14.60;11.35;;;6.30;99.90;;;;;;4880333;29;20556;-71
2021/10/11 07:14:01;;;;;;;16.83;10.98;;;6.60;99.90;;;;;;4879166;29;20231;-71
2021/10/11 07:16:27;;;;;;;14.25;10.73;;;6.90;99.90;;;;;;4879485;29;20210;-71
2021/10/11 07:18:54;;;;;;;12.77;10.10;;;7.20;99.90;;;;;;4879418;29;20207;-71
2021/10/11 07:21:22;;;;;;;13.00;10.13;;;7.50;99.90;;;;;;4879045;29;20235;-71
2021/10/11 07:23:49;;;;;;;11.20;9.98;;;7.70;99.90;;;;;;4879117;29;20210;-71
2021/10/11 07:26:15;;;;;;;12.93;10.25;;;8.00;99.90;;;;;;4878194;29;20228;-72
2021/10/11 07:28:42;;;;;;;12.93;10.13;;;8.20;99.90;;;;;;4879107;29;20598;-71
2021/10/11 07:31:09;;;;;;;11.90;9.35;;;8.40;99.90;;;;;;4878842;29;20221;-71
2021/10/11 07:33:36;;;;;;;12.68;9.68;;;8.60;99.90;;;;;;4879158;29;20234;-71
2021/10/11 07:36:03;;;;;;;14.35;10.63;;;8.80;99.90;;;;;;4878352;29;20722;-72
2021/10/11 07:38:31;;;;;;;14.73;11.48;;;8.90;99.90;;;;;;4879040;29;20208;-71
2021/10/11 07:40:58;;;;;;;13.63;11.15;;;9.00;99.90;;;;;;4878805;29;20214;-71
2021/10/11 07:43:25;;;;;;;13.77;11.35;;;9.10;99.90;;;;;;4879020;29;20234;-71
2021/10/11 07:45:52;;;;;;;15.30;10.88;;;9.20;99.90;;;;;;4878202;29;20235;-71
2021/10/11 07:48:18;;;;;;;14.13;10.82;;;9.30;99.90;;;;;;4878572;29;20238;-71
2021/10/11 07:50:45;;;;;;;18.52;11.20;;;9.40;99.90;;;;;;4878725;29;20214;-71
2021/10/11 07:53:13;;;;;;;12.95;10.63;;;9.60;99.90;;;;;;4878438;29;20214;-71
2021/10/11 07:55:43;;;;;;;12.70;10.70;;;9.70;99.90;;;;;;4878385;29;20231;-70
2021/10/11 07:58:10;;;;;;;14.55;10.95;;;9.90;99.90;;;;;;4878313;29;20245;-71
2021/10/11 08:00:36;;;;;;;15.32;12.13;;;10.20;99.90;;;;;;4878580;29;20233;-71
2021/10/11 08:03:03;;;;;;;15.95;11.43;;;10.40;99.90;;;;;;4878631;29;20211;-71
2021/10/11 08:05:30;;;;;;;18.63;11.90;;;10.50;99.90;;;;;;4878513;29;20234;-70
2021/10/11 08:07:57;;;;;;;15.13;11.65;;;10.60;99.90;;;;;;4877389;29;20707;-71
2021/10/11 08:10:23;;;;;;;12.15;10.95;;;10.40;99.90;;;;;;4878483;29;20242;-71
2021/10/11 08:12:52;;;;;;;14.60;11.27;;;10.40;99.90;;;;;;4878243;29;20591;-71
2021/10/11 08:15:20;;;;;;;19.90;11.15;;;10.50;99.90;;;;;;4878042;29;20231;-70
2021/10/11 08:17:49;;;;;;;14.18;11.02;;;10.40;99.90;;;;;;4877923;29;20207;-71
2021/10/11 08:20:17;;;;;;;15.43;11.73;;;10.50;99.90;;;;;;4878183;29;20207;-72
2021/10/11 08:22:44;;;;;;;13.98;10.43;;;10.60;99.90;;;;;;4878149;29;20211;-71
2021/10/11 08:25:11;;;;;;;13.23;10.80;;;10.90;99.90;;;;;;4877700;29;20235;-71
2021/10/11 08:27:37;;;;;;;12.98;10.77;;;11.10;99.90;;;;;;4877679;29;20214;-71
2021/10/11 08:30:07;;;;;;;13.10;10.32;;;11.20;99.90;;;;;;4877626;29;20223;-71
2021/10/11 08:32:35;;;;;;;11.80;10.43;;;11.40;99.90;;;;;;4877274;29;20714;-72
2021/10/11 08:35:02;;;;;;;12.50;11.13;;;11.50;99.90;;;;;;4876923;29;20314;-71
2021/10/11 08:37:29;;;;;;;12.45;11.15;;;11.70;99.90;;;;;;4875852;29;20266;-71
2021/10/11 08:39:56;;;;;;;14.18;11.13;;;11.90;99.90;;;;;;4876814;29;20676;-69
2021/10/11 08:42:23;;;;;;;13.48;11.43;;;11.90;99.90;;;;;;4877240;29;20203;-71
2021/10/11 08:44:50;;;;;;;14.02;11.52;;;11.90;99.90;;;;;;4876858;29;20227;-71
2021/10/11 08:47:19;;;;;;;15.30;11.60;;;12.00;99.90;;;;;;4876696;29;20211;-71
2021/10/11 08:49:48;;;;;;;13.15;10.35;;;12.10;99.90;;;;;;4876712;29;20229;-71
2021/10/11 08:52:16;;;;;;;12.18;9.65;;;12.30;99.90;;;;;;4876609;29;20214;-71
2021/10/11 08:54:43;;;;;;;13.35;10.50;;;12.50;99.90;;;;;;4876936;29;20831;-72
2021/10/11 08:57:20;;;;;;;13.65;11.60;;;12.60;99.90;;;;;;4876122;29;20203;-71
2021/10/11 08:59:47;;;;;;;13.05;11.07;;;12.70;99.90;;;;;;4877060;29;20245;-71
2021/10/11 09:02:16;;;;;;;15.07;9.73;;;12.90;99.90;;;;;;4876503;29;20305;-70
2021/10/11 09:04:49;;;;;;;12.13;9.57;;;13.00;99.90;;;;;;4876952;29;20524;-71
2021/10/11 09:07:16;;;;;;;14.35;9.60;;;13.10;99.90;;;;;;4875933;29;20963;-71
2021/10/11 09:09:47;;;;;;;13.77;9.70;;;13.10;99.90;;;;;;4876709;29;20235;-71
2021/10/11 09:12:18;;;;;;;14.97;10.57;;;13.10;99.90;;;;;;4877474;29;20854;-73
2021/10/11 09:14:47;;;;;;;11.43;8.70;;;13.10;99.90;;;;;;4876787;29;20510;-73
2021/10/11 09:17:24;;;;;;;11.67;8.80;;;13.10;99.90;;;;;;4876317;29;20952;-73
2021/10/11 09:20:01;;;;;;;13.40;9.43;;;13.10;99.90;;;;;;4876902;29;20912;-73
2021/10/11 09:22:35;;;;;;;15.30;9.93;;;13.20;99.90;;;;;;4876779;29;20493;-73
2021/10/11 09:25:03;;;;;;;11.97;9.33;;;13.20;99.90;;;;;;4876289;29;20498;-73
2021/10/11 09:27:30;;;;;;;17.17;10.00;;;13.10;99.90;;;;;;4876431;29;20847;-73
2021/10/11 09:29:57;;;;;;;13.90;10.57;;;13.10;99.90;;;;;;4876194;29;20867;-73
2021/10/11 09:32:31;;;;;;;16.13;10.40;;;13.20;99.90;;;;;;4842092;29;1042039;-73
2021/10/11 09:35:10;;;;;;;11.70;9.67;;;13.20;99.90;;;;;;4876822;29;20258;-73
2021/10/11 09:37:38;;;;;;;11.83;9.07;;;13.30;99.90;;;;;;4876931;29;20956;-73
2021/10/11 09:40:06;;;;;;;11.40;9.60;;;13.30;99.90;;;;;;4877013;29;20467;-73
2021/10/11 09:42:34;;;;;;;12.00;9.50;;;13.30;99.90;;;;;;4877260;29;20475;-73
2021/10/11 09:45:02;;;;;;;14.20;8.57;;;13.40;99.90;;;;;;4876817;29;21034;-73
2021/10/11 09:47:33;;;;;;;11.03;8.83;;;13.50;99.90;;;;;;4877099;29;20475;-73
2021/10/11 09:50:02;;;;;;;11.23;9.40;;;13.80;99.90;;;;;;4880537;29;20532;-73
2021/10/11 09:52:30;;;;;;;9.47;8.47;;;14.10;99.90;;;;;;4880967;29;20503;-73
2021/10/11 09:54:58;;;;;;;12.47;9.93;;;14.30;99.90;;;;;;4881017;29;20522;-73
2021/10/11 09:57:24;;;;;;;12.80;9.43;;;14.50;99.90;;;;;;4880828;29;20459;-73
2021/10/11 09:59:52;;;;;;;10.23;9.13;;;14.70;99.90;;;;;;4880921;29;20474;-73
2021/10/11 10:02:22;;;;;;;11.50;9.30;;;14.90;99.90;;;;;;4880603;29;20519;-73
2021/10/11 10:04:50;;;;;;;10.43;9.33;;;15.10;99.90;;;;;;5075634;23;20978;-69
2021/10/11 10:07:17;;;;;;;12.47;9.47;;;15.20;99.90;;;;;;4891768;29;20455;-70
2021/10/11 10:09:49;;;;;;;8.90;7.97;;;15.30;99.90;;;;;;4880547;29;20487;-70
2021/10/11 10:12:16;;;;;;;10.60;8.90;;;15.50;99.90;;;;;;4880375;29;20471;-70
2021/10/11 10:14:43;;;;;;;12.90;8.97;;;15.80;99.90;;;;;;4880412;29;20487;-70
2021/10/11 10:17:10;;;;;;;9.77;8.60;;;15.90;99.90;;;;;;4879884;29;20482;-70
2021/10/11 10:19:39;;;;;;;10.30;8.53;;;16.00;99.90;;;;;;4880366;29;20876;-71
2021/10/11 10:22:16;;;;;;;9.07;8.17;;;16.10;99.90;;;;;;4880147;29;20474;-70
2021/10/11 10:24:44;;;;;;;11.37;8.63;;;16.20;99.90;;;;;;4880198;29;20491;-70
2021/10/11 10:27:13;;;;;;;9.30;7.37;;;16.20;99.90;;;;;;4879726;29;20482;-71
2021/10/11 10:29:45;;;;;;;10.33;8.90;;;16.40;99.90;;;;;;4880400;29;20518;-70
2021/10/11 10:32:13;;;;;;;10.87;8.90;;;16.40;99.90;;;;;;4879844;29;20990;-70
2021/10/11 10:34:41;;;;;;;9.90;8.90;;;16.40;99.90;;;;;;4880041;29;20487;-69
2021/10/11 10:37:11;;;;;;;9.87;8.80;;;16.50;99.90;;;;;;4879445;29;20566;-71
2021/10/11 10:39:39;;;;;;;11.73;8.63;;;16.60;99.90;;;;;;4880203;29;20474;-71
2021/10/11 10:42:09;;;;;;;10.53;9.43;;;16.70;99.90;;;;;;4879899;29;20459;-70
2021/10/11 10:44:45;;;;;;;10.70;7.60;;;16.70;99.90;;;;;;4879664;29;20494;-71
2021/10/11 10:47:11;;;;;;;9.60;7.90;;;16.80;99.90;;;;;;4879522;29;20955;-70
2021/10/11 10:49:39;;;;;;;11.37;7.93;;;17.20;99.90;;;;;;4879418;29;20494;-71
2021/10/11 10:52:11;;;;;;;9.33;8.33;;;17.50;99.90;;;;;;4879664;29;20474;-70
2021/10/11 10:54:39;;;;;;;11.67;8.23;;;17.80;99.90;;;;;;4879549;29;20487;-70
2021/10/11 10:57:09;;;;;;;10.43;8.00;;;18.00;99.90;;;;;;4879135;29;20971;-71
2021/10/11 10:59:36;;;;;;;12.00;8.23;;;18.30;99.90;;;;;;4878865;29;20467;-70
2021/10/11 11:02:07;;;;;;;10.97;8.10;;;18.40;99.90;;;;;;4879754;29;20471;-71
2021/10/11 11:04:35;;;;;;;10.17;8.03;;;18.50;99.90;;;;;;4879652;29;20495;-71
2021/10/11 11:07:04;;;;;;;11.53;8.83;;;18.40;99.90;;;;;;4879154;29;20468;-71
2021/10/11 11:09:45;;;;;;;10.10;8.73;;;18.50;99.90;;;;;;4879711;29;20491;-70
2021/10/11 11:12:14;;;;;;;11.67;9.33;;;18.40;99.90;;;;;;4879594;29;20478;-71
2021/10/11 11:14:44;;;;;;;10.50;9.40;;;18.40;99.90;;;;;;4879241;29;20855;-71
2021/10/11 11:17:14;;;;;;;11.27;9.33;;;18.80;99.90;;;;;;4878848;29;20478;-72
2021/10/11 11:19:43;;;;;;;12.50;9.10;;;19.10;99.90;;;;;;4879580;29;20470;-71
2021/10/11 11:22:13;;;;;;;10.20;8.77;;;19.20;99.90;;;;;;4879001;29;20844;-71
2021/10/11 11:24:49;;;;;;;10.80;8.60;;;19.50;99.90;;;;;;4879176;29;20559;-71
2021/10/11 11:27:28;;;;;;;10.03;8.90;;;19.70;99.90;;;;;;4878658;29;20503;-71
2021/10/11 11:29:55;;;;;;;11.37;9.57;;;19.80;99.60;;;;;;4879102;29;20870;-71
2021/10/11 11:32:22;;;;;;;10.90;9.80;;;20.00;99.20;;;;;;4879051;29;20463;-71
2021/10/11 11:34:49;;;;;;;9.43;8.43;;;19.70;99.20;;;;;;4879272;29;20517;-71
2021/10/11 11:37:16;;;;;;;11.00;9.77;;;19.40;99.80;;;;;;4878516;29;20967;-71
2021/10/11 11:39:43;;;;;;;14.70;9.47;;;19.40;99.90;;;;;;4879089;29;20467;-71
2021/10/11 11:42:09;;;;;;;10.60;9.33;;;19.50;99.30;;;;;;4879186;29;20480;-71
2021/10/11 11:44:38;;;;;;;10.23;9.00;;;19.80;99.70;;;;;;4878960;29;20527;-71
2021/10/11 11:47:07;;;;;;;10.33;9.17;;;20.00;99.40;;;;;;4878223;29;20479;-71
2021/10/11 11:49:35;;;;;;;10.03;9.03;;;20.00;99.90;;;;;;4878783;29;20529;-70
2021/10/11 11:52:07;;;;;;;13.17;9.00;;;20.00;99.60;;;;;;4878629;29;20463;-73
2021/10/11 11:54:34;;;;;;;11.20;9.00;;;20.00;99.40;;;;;;4878940;29;20544;-71
2021/10/11 11:57:04;;;;;;;12.90;10.30;;;19.50;99.70;;;;;;4878188;29;20475;-71
2021/10/11 11:59:31;;;;;;;11.13;9.30;;;19.30;99.20;;;;;;4878694;29;20467;-71
2021/10/11 12:02:02;;;;;;;13.20;10.63;;;19.10;99.60;;;;;;4878630;29;20464;-71
2021/10/11 12:04:30;;;;;;;13.50;10.53;;;18.80;99.90;;;;;;4878318;29;20499;-71
2021/10/11 12:07:03;;;;;;;11.67;10.43;;;18.80;99.90;;;;;;4878081;29;20482;-71
2021/10/11 12:09:30;;;;;;;11.40;10.20;;;19.10;99.90;;;;;;4878446;29;20578;-71
2021/10/11 12:12:04;;;;;;;15.40;11.10;;;19.50;99.90;;;;;;4878252;29;20467;-71
2021/10/11 12:14:33;;;;;;;13.83;10.03;;;19.80;99.90;;;;;;4878061;29;20487;-72
2021/10/11 12:17:02;;;;;;;11.73;10.13;;;20.00;99.90;;;;;;4877647;29;20471;-71
2021/10/11 12:19:29;;;;;;;12.33;10.40;;;20.00;99.90;;;;;;4878341;29;20463;-71
2021/10/11 12:21:57;;;;;;;11.90;10.40;;;19.80;99.80;;;;;;4878313;29;20495;-69
2021/10/11 12:24:25;;;;;;;10.97;8.90;;;19.40;99.60;;;;;;4877723;29;20484;-71
2021/10/11 12:26:54;;;;;;;13.17;10.30;;;19.30;99.90;;;;;;4877878;29;20464;-71
2021/10/11 12:29:22;;;;;;;11.60;9.73;;;18.80;99.90;;;;;;4877897;29;20468;-71
2021/10/11 12:31:58;;;;;;;10.00;8.87;;;18.10;99.90;;;;;;4939641;23;20500;-92
2021/10/11 12:34:30;;;;;;;13.70;9.83;;;17.90;99.90;;;;;;4916807;29;20467;-92
2021/10/11 12:36:58;;;;;;;10.40;9.00;;;17.90;99.90;;;;;;4922946;29;20493;-92
2021/10/11 12:39:34;;;;;;;11.07;9.80;;;18.00;99.90;;;;;;4922992;29;20469;-93
2021/10/11 12:42:01;;;;;;;11.33;9.53;;;18.20;99.90;;;;;;4909975;29;20482;-92